createdAt,value
2022-09-21T00:01:29.254Z,4.63
2022-09-21T00:04:02.845Z,3.28
2022-09-21T00:06:33.994Z,3.10
2022-09-21T00:09:04.089Z,3.60
2022-09-21T00:11:33.284Z,3.15
2022-09-21T00:14:13.161Z,5.03
2022-09-21T00:16:42.998Z,3.97
2022-09-21T00:19:11.938Z,3.00
2022-09-21T00:21:39.234Z,5.20
2022-09-21T00:24:07.621Z,2.97
2022-09-21T00:26:35.255Z,6.63
2022-09-21T00:29:04.401Z,3.97
2022-09-21T00:31:33.203Z,3.33
2022-09-21T00:34:00.639Z,3.42
2022-09-21T00:36:28.319Z,3.35
2022-09-21T00:39:01.690Z,3.45
2022-09-21T00:41:32.348Z,3.60
2022-09-21T00:44:33.173Z,3.40
2022-09-21T00:47:35.730Z,3.97
2022-09-21T00:50:09.040Z,4.40
2022-09-21T00:52:42.805Z,4.30
2022-09-21T00:55:22.757Z,5.03
2022-09-21T00:57:57.308Z,3.85
2022-09-21T01:00:24.380Z,5.40
2022-09-21T01:02:51.665Z,8.35
2022-09-21T01:05:18.904Z,4.20
2022-09-21T01:07:48.330Z,5.40
2022-09-21T01:10:19.397Z,4.15
2022-09-21T01:13:20.534Z,5.13
2022-09-21T01:15:54.668Z,4.75
2022-09-21T01:18:41.800Z,4.38
2022-09-21T01:21:23.445Z,4.18
2022-09-21T01:24:22.767Z,3.70
2022-09-21T01:27:14.311Z,4.53
2022-09-21T01:30:05.992Z,4.68
2022-09-21T01:32:44.918Z,4.18
2022-09-21T01:35:30.037Z,5.15
2022-09-21T01:38:05.580Z,5.80
2022-09-21T01:40:39.953Z,6.13
2022-09-21T01:43:14.362Z,5.25
2022-09-21T01:45:52.072Z,5.30
2022-09-21T01:48:22.402Z,4.80
2022-09-21T01:50:57.820Z,4.40
2022-09-21T01:53:35.850Z,4.70
2022-09-21T01:56:33.383Z,6.80
2022-09-21T01:59:23.072Z,5.70
2022-09-21T02:02:00.044Z,5.50
2022-09-21T02:04:27.695Z,7.47
2022-09-21T02:06:56.032Z,3.42
2022-09-21T02:09:24.227Z,4.65
2022-09-21T02:11:51.000Z,5.05
2022-09-21T02:14:23.341Z,3.25
2022-09-21T02:17:25.090Z,4.50
2022-09-21T02:20:20.451Z,3.33
2022-09-21T02:23:17.247Z,4.53
2022-09-21T02:26:03.340Z,3.53
2022-09-21T02:28:43.578Z,4.45
2022-09-21T02:31:37.264Z,4.70
2022-09-21T02:34:27.990Z,5.35
2022-09-21T02:37:04.663Z,4.05
2022-09-21T02:39:59.424Z,3.45
2022-09-21T02:42:36.212Z,4.60
2022-09-21T02:45:26.693Z,4.20
2022-09-21T02:48:31.469Z,3.47
2022-09-21T02:51:07.917Z,4.10
2022-09-21T02:53:38.670Z,6.30
2022-09-21T02:56:09.187Z,4.65
2022-09-21T02:58:42.815Z,4.07
2022-09-21T03:01:14.469Z,3.65
2022-09-21T03:03:42.132Z,4.18
2022-09-21T03:06:09.041Z,3.75
2022-09-21T03:08:35.924Z,6.28
2022-09-21T03:11:05.647Z,2.70
2022-09-21T03:13:32.665Z,5.18
2022-09-21T03:16:07.659Z,3.20
2022-09-21T03:18:35.147Z,3.03
2022-09-21T03:21:03.209Z,3.08
2022-09-21T03:23:30.654Z,3.58
2022-09-21T03:25:57.753Z,3.05
2022-09-21T03:28:24.598Z,2.97
2022-09-21T03:30:52.478Z,2.60
2022-09-21T03:33:21.923Z,4.90
2022-09-21T03:35:49.365Z,3.78
2022-09-21T03:38:16.932Z,3.83
2022-09-21T03:40:49.331Z,5.82
2022-09-21T03:43:17.791Z,5.53
2022-09-21T03:45:45.152Z,4.60
2022-09-21T03:48:12.964Z,2.72
2022-09-21T03:50:39.939Z,3.47
2022-09-21T03:53:08.351Z,2.90
2022-09-21T03:55:35.393Z,3.17
2022-09-21T03:58:03.394Z,2.92
2022-09-21T04:00:30.551Z,3.05
2022-09-21T04:02:57.593Z,8.80
2022-09-21T04:05:24.868Z,4.35
2022-09-21T04:07:51.818Z,4.63
2022-09-21T04:10:27.235Z,6.55
2022-09-21T04:12:58.581Z,3.20
2022-09-21T04:15:25.804Z,6.18
2022-09-21T04:17:53.931Z,4.57
2022-09-21T04:20:21.902Z,2.80
2022-09-21T04:22:49.348Z,3.40
2022-09-21T04:25:16.573Z,4.03
2022-09-21T04:27:43.874Z,6.07
2022-09-21T04:30:14.288Z,2.95
2022-09-21T04:32:41.412Z,3.28
2022-09-21T04:35:09.107Z,3.55
2022-09-21T04:37:36.422Z,3.95
2022-09-21T04:40:05.055Z,3.40
2022-09-21T04:42:32.705Z,4.70
2022-09-21T04:45:00.322Z,5.20
2022-09-21T04:47:31.056Z,3.90
2022-09-21T04:49:58.100Z,4.50
2022-09-21T04:52:26.087Z,4.18
2022-09-21T04:54:53.328Z,3.67
2022-09-21T04:57:20.705Z,6.18
2022-09-21T04:59:47.957Z,3.80
2022-09-21T05:02:15.249Z,5.25
2022-09-21T05:04:42.322Z,4.78
2022-09-21T05:07:09.728Z,3.97
2022-09-21T05:09:55.711Z,6.53
2022-09-21T05:12:23.239Z,3.13
2022-09-21T05:14:50.365Z,9.65
2022-09-21T05:17:17.565Z,3.55
2022-09-21T05:19:44.966Z,4.18
2022-09-21T05:22:12.243Z,5.28
2022-09-21T05:24:39.388Z,4.07
2022-09-21T05:27:07.202Z,3.58
2022-09-21T05:29:35.047Z,5.90
2022-09-21T05:32:37.038Z,3.67
2022-09-21T05:35:43.673Z,5.93
2022-09-21T05:38:20.139Z,3.80
2022-09-21T05:40:50.263Z,6.13
2022-09-21T05:43:18.383Z,5.53
2022-09-21T05:45:51.785Z,4.97
2022-09-21T05:48:28.211Z,7.57
2022-09-21T05:51:35.027Z,5.40
2022-09-21T05:54:26.285Z,9.27
2022-09-21T05:57:35.037Z,4.03
2022-09-21T06:00:23.552Z,6.00
2022-09-21T06:03:25.723Z,7.57
2022-09-21T06:05:53.143Z,5.10
2022-09-21T06:08:32.789Z,4.90
2022-09-21T06:11:01.929Z,4.07
2022-09-21T06:13:29.609Z,7.38
2022-09-21T06:15:57.283Z,4.40
2022-09-21T06:18:24.440Z,3.80
2022-09-21T06:20:51.313Z,4.63
2022-09-21T06:23:18.654Z,5.28
2022-09-21T06:25:55.906Z,3.70
2022-09-21T06:28:26.341Z,4.63
2022-09-21T06:30:56.610Z,7.97
2022-09-21T06:33:24.362Z,6.57
2022-09-21T06:36:00.589Z,6.65
2022-09-21T06:38:29.504Z,7.68
2022-09-21T06:41:03.217Z,4.82
2022-09-21T06:43:32.158Z,5.03
2022-09-21T06:46:02.230Z,7.75
2022-09-21T06:48:32.841Z,5.15
2022-09-21T06:51:06.201Z,6.63
2022-09-21T06:53:35.099Z,8.15
2022-09-21T06:56:09.904Z,7.75
2022-09-21T06:58:37.959Z,6.65
2022-09-21T07:01:08.090Z,5.22
2022-09-21T07:03:36.260Z,6.88
2022-09-21T07:06:03.405Z,4.30
2022-09-21T07:11:18.134Z,6.05
2022-09-21T07:13:45.504Z,4.47
2022-09-21T07:16:12.865Z,8.55
2022-09-21T07:18:44.569Z,8.15
2022-09-21T07:21:12.316Z,12.25
2022-09-21T07:23:39.320Z,6.63
2022-09-21T07:26:13.892Z,4.88
2022-09-21T07:28:42.221Z,5.95
2022-09-21T07:31:14.142Z,6.32
2022-09-21T07:33:42.816Z,4.13
2022-09-21T07:36:12.860Z,5.07
2022-09-21T07:38:44.232Z,3.85
2022-09-21T07:41:15.661Z,4.22
2022-09-21T07:43:42.587Z,6.72
2022-09-21T07:46:13.345Z,3.03
2022-09-21T07:48:41.216Z,5.53
2022-09-21T07:51:14.972Z,2.60
2022-09-21T07:53:44.815Z,4.57
2022-09-21T07:56:16.014Z,2.92
2022-09-21T07:59:02.704Z,2.95
2022-09-21T08:01:31.018Z,3.20
2022-09-21T08:03:59.945Z,5.05
2022-09-21T08:06:32.072Z,4.18
2022-09-21T08:09:08.826Z,3.30
2022-09-21T08:11:37.859Z,4.07
2022-09-21T08:14:05.533Z,3.40
2022-09-21T08:16:35.729Z,4.22
2022-09-21T08:19:07.285Z,2.67
2022-09-21T08:21:34.559Z,6.97
2022-09-21T08:24:01.687Z,5.15
2022-09-21T08:26:28.804Z,2.95
2022-09-21T08:28:58.640Z,3.65
2022-09-21T08:31:26.650Z,4.47
2022-09-21T08:33:57.739Z,4.40
2022-09-21T08:36:25.480Z,2.25
2022-09-21T08:38:55.435Z,4.03
2022-09-21T08:41:49.794Z,2.42
2022-09-21T08:44:52.851Z,3.17
2022-09-21T08:47:40.090Z,2.80
2022-09-21T08:50:37.894Z,4.65
2022-09-21T08:53:33.417Z,3.17
2022-09-21T08:56:01.711Z,2.88
2022-09-21T08:58:31.618Z,3.65
2022-09-21T09:01:20.600Z,6.38
2022-09-21T09:04:51.745Z,2.47
2022-09-21T09:07:49.094Z,2.95
2022-09-21T09:10:28.556Z,3.35
2022-09-21T09:13:50.989Z,3.08
2022-09-21T09:16:41.184Z,2.80
2022-09-21T09:19:24.252Z,2.70
2022-09-21T09:21:52.005Z,6.03
2022-09-21T09:24:38.674Z,10.65
2022-09-21T09:27:39.118Z,3.03
2022-09-21T09:30:20.687Z,4.43
2022-09-21T09:33:01.420Z,6.20
2022-09-21T09:35:49.934Z,3.80
2022-09-21T09:38:39.595Z,3.85
2022-09-21T09:41:38.609Z,2.90
2022-09-21T09:44:25.460Z,4.45
2022-09-21T09:47:23.336Z,2.80
2022-09-21T09:50:13.134Z,3.55
2022-09-21T09:52:40.963Z,3.38
2022-09-21T09:55:25.937Z,3.63
2022-09-21T09:57:56.440Z,2.88
2022-09-21T10:00:23.444Z,2.85
2022-09-21T10:02:54.924Z,3.25
2022-09-21T10:05:25.697Z,2.40
2022-09-21T10:07:53.270Z,2.88
2022-09-21T10:10:29.220Z,2.47
2022-09-21T10:13:25.397Z,3.28
2022-09-21T10:15:58.927Z,2.60
2022-09-21T10:18:40.223Z,2.88
2022-09-21T10:21:17.240Z,2.60
2022-09-21T10:24:01.953Z,5.80
2022-09-21T10:26:40.349Z,3.53
2022-09-21T10:29:32.860Z,2.88
2022-09-21T10:32:26.522Z,3.28
2022-09-21T10:35:07.328Z,2.78
2022-09-21T10:37:42.770Z,3.50
2022-09-21T10:40:22.179Z,6.05
2022-09-21T10:42:52.634Z,2.95
2022-09-21T10:45:21.591Z,5.15
2022-09-21T10:47:55.089Z,6.10
2022-09-21T10:50:34.769Z,3.35
2022-09-21T10:53:10.622Z,3.70
2022-09-21T10:55:52.783Z,6.38
2022-09-21T10:58:33.508Z,4.15
2022-09-21T11:01:20.984Z,4.68
2022-09-21T11:04:03.388Z,3.53
2022-09-21T11:06:40.292Z,3.50
2022-09-21T11:09:19.374Z,2.95
2022-09-21T11:12:04.216Z,3.33
2022-09-21T11:14:56.871Z,5.95
2022-09-21T11:17:38.824Z,4.03
2022-09-21T11:20:22.987Z,2.40
2022-09-21T11:23:28.438Z,2.75
2022-09-21T11:26:29.346Z,3.20
2022-09-21T11:29:17.796Z,2.10
2022-09-21T11:32:06.075Z,4.25
2022-09-21T11:35:12.459Z,2.50
2022-09-21T11:38:10.026Z,5.28
2022-09-21T11:40:40.234Z,2.88
2022-09-21T11:43:35.568Z,2.92
2022-09-21T11:46:17.767Z,2.53
2022-09-21T11:48:59.434Z,1.77
2022-09-21T11:51:50.598Z,2.22
2022-09-21T11:55:05.367Z,4.57
2022-09-21T11:57:44.684Z,1.60
2022-09-21T12:00:17.532Z,1.92
2022-09-21T12:03:24.387Z,2.35
2022-09-21T12:06:25.763Z,2.17
2022-09-21T12:09:23.366Z,2.65
2022-09-21T12:12:13.616Z,1.98
2022-09-21T12:15:13.398Z,2.53
2022-09-21T12:17:55.401Z,2.35
2022-09-21T12:20:46.148Z,9.00
2022-09-21T12:23:45.385Z,1.60
2022-09-21T12:26:21.785Z,2.60
2022-09-21T12:29:00.743Z,2.50
2022-09-21T12:31:45.085Z,1.40
2022-09-21T12:34:38.514Z,4.82
2022-09-21T12:37:17.282Z,1.98
2022-09-21T12:40:03.165Z,2.00
2022-09-21T12:43:08.700Z,1.95
2022-09-21T12:45:45.107Z,1.70
2022-09-21T12:48:39.632Z,2.42
2022-09-21T12:51:35.014Z,1.80
2022-09-21T12:54:43.808Z,1.45
2022-09-21T12:57:49.106Z,2.05
2022-09-21T13:00:22.156Z,2.03
2022-09-21T13:03:00.082Z,2.45
2022-09-21T13:05:35.655Z,1.48
2022-09-21T13:08:14.668Z,1.52
2022-09-21T13:10:54.658Z,1.75
2022-09-21T13:13:39.407Z,1.90
2022-09-21T13:16:08.154Z,3.90
2022-09-21T13:18:39.844Z,0.88
2022-09-21T13:21:26.411Z,1.75
2022-09-21T13:24:06.376Z,1.10
2022-09-21T13:26:41.820Z,3.80
2022-09-21T13:29:17.756Z,1.75
2022-09-21T13:32:14.053Z,1.25
2022-09-21T13:34:45.541Z,1.23
2022-09-21T13:37:14.086Z,0.77
2022-09-21T13:40:02.885Z,0.95
2022-09-21T13:42:35.702Z,1.00
2022-09-21T13:45:25.088Z,1.45
2022-09-21T13:47:59.133Z,0.90
2022-09-21T13:50:44.691Z,0.85
2022-09-21T13:53:32.409Z,0.85
2022-09-21T13:56:16.926Z,1.25
2022-09-21T13:58:52.150Z,2.58
2022-09-21T14:01:47.840Z,1.45
2022-09-21T14:04:28.575Z,1.00
2022-09-21T14:06:58.265Z,1.38
2022-09-21T14:09:31.908Z,1.50
2022-09-21T14:12:09.128Z,1.40
2022-09-21T14:14:41.501Z,1.20
2022-09-21T14:17:38.196Z,1.13
2022-09-21T14:20:30.303Z,1.98
2022-09-21T14:23:16.414Z,0.98
2022-09-21T14:28:45.201Z,1.10
2022-09-21T14:31:31.592Z,1.08
2022-09-21T14:34:04.627Z,0.95
2022-09-21T14:36:44.943Z,1.60
2022-09-21T14:39:24.662Z,0.80
2022-09-21T14:41:57.966Z,1.00
2022-09-21T14:44:35.348Z,1.95
2022-09-21T14:47:53.858Z,1.38
2022-09-21T14:50:31.057Z,0.95
2022-09-21T14:53:35.542Z,2.35
2022-09-21T14:56:41.032Z,1.95
2022-09-21T14:59:47.804Z,2.20
2022-09-21T15:02:27.442Z,1.40
2022-09-21T15:05:04.640Z,1.85
2022-09-21T15:08:46.761Z,1.98
2022-09-21T15:11:22.853Z,1.80
2022-09-21T15:14:11.463Z,2.70
2022-09-21T15:16:50.167Z,2.45
2022-09-21T15:19:37.296Z,2.53
2022-09-21T15:22:19.259Z,2.20
2022-09-21T15:24:59.400Z,3.30
2022-09-21T15:27:33.449Z,3.42
2022-09-21T15:30:06.592Z,3.15
2022-09-21T15:32:42.932Z,4.35
2022-09-21T15:35:15.874Z,2.55
2022-09-21T15:37:45.154Z,4.93
2022-09-21T15:40:26.844Z,2.63
2022-09-21T15:43:06.591Z,2.78
2022-09-21T15:45:54.778Z,2.00
2022-09-21T15:48:24.733Z,4.50
2022-09-21T15:51:00.969Z,5.93
2022-09-21T15:53:46.807Z,2.05
2022-09-21T15:56:26.938Z,1.80
2022-09-21T15:59:08.799Z,1.92
2022-09-21T16:01:48.523Z,2.38
2022-09-21T16:04:27.052Z,2.47
2022-09-21T16:07:26.901Z,2.10
2022-09-21T16:09:55.200Z,2.17
2022-09-21T16:12:46.031Z,3.65
2022-09-21T16:15:18.521Z,2.25
2022-09-21T16:18:02.963Z,2.63
2022-09-21T16:20:48.386Z,4.33
2022-09-21T16:23:24.353Z,3.90
2022-09-21T16:26:01.634Z,3.53
2022-09-21T16:28:55.921Z,4.50
2022-09-21T16:31:33.232Z,2.80
2022-09-21T16:34:05.947Z,2.50
2022-09-21T16:36:42.076Z,2.20
2022-09-21T16:39:15.254Z,2.10
2022-09-21T16:42:01.825Z,2.00
2022-09-21T16:44:35.484Z,1.52
2022-09-21T16:47:04.457Z,1.80
2022-09-21T16:49:49.592Z,6.05
2022-09-21T16:52:18.087Z,2.00
2022-09-21T16:54:46.690Z,2.50
2022-09-21T16:57:21.051Z,7.07
2022-09-21T16:59:50.488Z,3.28
2022-09-21T17:02:18.395Z,3.08
2022-09-21T17:04:49.209Z,5.75
2022-09-21T17:07:19.026Z,4.75
2022-09-21T17:09:48.096Z,5.38
2022-09-21T17:12:18.438Z,5.72
2022-09-21T17:14:47.227Z,6.60
2022-09-21T17:17:34.911Z,6.53
2022-09-21T17:20:38.028Z,5.25
2022-09-21T17:23:15.557Z,5.38
2022-09-21T17:25:43.827Z,5.05
2022-09-21T17:28:26.345Z,4.80
2022-09-21T17:30:54.854Z,10.82
2022-09-21T17:33:23.093Z,9.98
2022-09-21T17:35:51.258Z,5.13
2022-09-21T17:38:18.325Z,5.00
2022-09-21T17:40:48.935Z,5.07
2022-09-21T17:43:36.138Z,5.03
2022-09-21T17:46:43.389Z,11.95
2022-09-21T17:49:12.379Z,6.15
2022-09-21T17:52:01.912Z,8.07
2022-09-21T17:54:29.230Z,5.20
2022-09-21T17:57:44.673Z,5.03
2022-09-21T18:00:24.612Z,6.22
2022-09-21T18:02:54.280Z,6.18
2022-09-21T18:05:26.804Z,5.25
2022-09-21T18:07:54.963Z,7.68
2022-09-21T18:10:26.199Z,7.45
2022-09-21T18:13:32.631Z,6.38
2022-09-21T18:19:58.315Z,4.88
2022-09-21T18:23:17.249Z,5.40
2022-09-21T18:25:49.710Z,5.80
2022-09-21T18:28:42.324Z,6.78
2022-09-21T18:31:51.558Z,7.82
2022-09-21T18:34:46.016Z,5.85
2022-09-21T18:37:55.140Z,5.25
2022-09-21T18:40:44.969Z,8.10
2022-09-21T18:44:05.916Z,5.85
2022-09-21T18:47:06.678Z,8.65
2022-09-21T18:49:54.993Z,6.22
2022-09-21T18:52:53.756Z,9.45
2022-09-21T18:55:33.428Z,7.22
2022-09-21T18:58:01.779Z,6.00
2022-09-21T19:00:34.808Z,9.18
2022-09-21T19:03:17.737Z,8.95
2022-09-21T19:05:53.856Z,6.50
2022-09-21T19:09:05.916Z,6.65
2022-09-21T19:11:49.874Z,9.63
2022-09-21T19:14:39.077Z,6.40
2022-09-21T19:17:52.852Z,9.63
2022-09-21T19:21:01.971Z,9.02
2022-09-21T19:24:05.108Z,10.10
2022-09-21T19:26:48.192Z,9.77
2022-09-21T19:29:38.491Z,10.13
2022-09-21T19:32:16.393Z,7.32
2022-09-21T19:34:44.503Z,8.52
2022-09-21T19:37:17.589Z,8.07
2022-09-21T19:39:44.981Z,7.70
2022-09-21T19:42:35.130Z,7.35
2022-09-21T19:45:23.031Z,7.03
2022-09-21T19:47:59.135Z,10.93
2022-09-21T19:50:59.134Z,8.85
2022-09-21T19:53:47.139Z,9.02
2022-09-21T19:56:35.944Z,8.63
2022-09-21T19:59:23.048Z,9.30
2022-09-21T20:01:56.355Z,9.80
2022-09-21T20:04:38.717Z,9.02
2022-09-21T20:07:19.031Z,11.95
2022-09-21T20:10:17.753Z,10.32
2022-09-21T20:12:57.859Z,12.27
2022-09-21T20:15:57.249Z,7.57
2022-09-21T20:18:47.744Z,10.15
2022-09-21T20:21:21.712Z,8.75
2022-09-21T20:23:58.256Z,13.40
2022-09-21T20:26:29.181Z,10.82
2022-09-21T20:28:57.069Z,11.45
2022-09-21T20:31:26.725Z,9.98
2022-09-21T20:33:54.459Z,9.52
2022-09-21T20:36:25.038Z,10.02
2022-09-21T20:38:51.862Z,9.23
2022-09-21T20:41:24.532Z,9.88
2022-09-21T20:43:52.251Z,11.00
2022-09-21T20:46:20.203Z,11.73
2022-09-21T20:48:47.537Z,10.90
2022-09-21T20:51:14.505Z,9.75
2022-09-21T20:53:41.616Z,12.32
2022-09-21T20:56:09.008Z,11.00
2022-09-21T20:58:35.997Z,11.32
2022-09-21T21:01:08.239Z,10.50
2022-09-21T21:03:35.695Z,13.52
2022-09-21T21:06:18.846Z,13.68
2022-09-21T21:08:48.012Z,10.88
2022-09-21T21:11:15.142Z,14.07
2022-09-21T21:13:43.111Z,11.93
2022-09-21T21:16:12.416Z,13.40
2022-09-21T21:18:42.751Z,12.27
2022-09-21T21:21:10.768Z,13.55
2022-09-21T21:23:56.921Z,17.00
2022-09-21T21:26:38.102Z,12.15
2022-09-21T21:29:06.134Z,10.88
2022-09-21T21:31:32.987Z,11.82
2022-09-21T21:34:00.273Z,12.10
2022-09-21T21:36:27.891Z,10.88
2022-09-21T21:38:54.869Z,11.98
2022-09-21T21:41:21.697Z,12.23
2022-09-21T21:43:49.183Z,10.80
2022-09-21T21:46:16.128Z,13.73
2022-09-21T21:48:43.106Z,12.07
2022-09-21T21:51:10.640Z,11.63
2022-09-21T21:53:39.665Z,10.63
2022-09-21T21:56:16.171Z,14.32
2022-09-21T21:58:43.847Z,13.13
2022-09-21T22:01:19.299Z,11.23
2022-09-21T22:03:46.529Z,13.60
2022-09-21T22:06:13.899Z,12.27
2022-09-21T22:08:41.150Z,12.40
2022-09-21T22:11:08.506Z,11.80
2022-09-21T22:13:39.949Z,12.52
2022-09-21T22:16:12.038Z,14.93
2022-09-21T22:18:39.916Z,12.52
2022-09-21T22:21:13.808Z,12.52
2022-09-21T22:23:41.324Z,10.90
2022-09-21T22:26:17.221Z,13.07
2022-09-21T22:28:49.029Z,10.02
2022-09-21T22:31:20.990Z,12.55
2022-09-21T22:33:49.205Z,12.85
2022-09-21T22:36:22.479Z,11.30
2022-09-21T22:38:50.095Z,13.23
2022-09-21T22:41:23.373Z,11.98
2022-09-21T22:43:54.099Z,11.68
2022-09-21T22:46:23.096Z,13.70
2022-09-21T22:48:51.064Z,10.05
2022-09-21T22:51:20.522Z,9.25
2022-09-21T22:53:49.669Z,10.35
2022-09-21T22:56:26.797Z,12.18
2022-09-21T22:58:57.621Z,14.43
2022-09-21T23:01:29.184Z,11.98
2022-09-21T23:04:10.785Z,13.02
2022-09-21T23:06:44.042Z,11.13
2022-09-21T23:09:19.831Z,12.23
2022-09-21T23:11:53.593Z,11.60
2022-09-21T23:14:23.209Z,12.53
2022-09-21T23:16:50.602Z,13.70
2022-09-21T23:19:17.766Z,12.52
2022-09-21T23:21:49.883Z,13.32
2022-09-21T23:24:17.932Z,14.40
2022-09-21T23:26:46.231Z,11.50
2022-09-21T23:29:15.715Z,11.55
2022-09-21T23:31:45.283Z,13.23
2022-09-21T23:34:14.531Z,11.13
2022-09-21T23:36:42.842Z,10.05
2022-09-21T23:39:13.432Z,11.15
2022-09-21T23:41:42.146Z,13.50
2022-09-21T23:44:09.517Z,10.05
2022-09-21T23:46:38.778Z,15.55
2022-09-21T23:49:06.658Z,10.68
2022-09-21T23:51:34.616Z,11.30
2022-09-21T23:54:01.821Z,13.10
2022-09-21T23:56:30.107Z,13.35
2022-09-21T23:58:57.486Z,12.55
